Time;durP1;ratioP1;P1;durP2;ratioP2;P2;SDS_P1;SDS_P2;PMS_P1;PMS_P2;Temp;Humidity;BMP_temperature;BMP_pressure;BME280_temperature;BME280_humidity;BME280_pressure;Samples;Min_cycle;Max_cycle;Signal;HPM_P1;HPM_P2
2023/11/03 00:00:04;;;;;;;7.90;2.72;;;;;;;6.76;100.00;97540.03;4996102;28;20457;-80
2023/11/03 00:02:30;;;;;;;16.33;2.72;;;;;;;6.74;100.00;97523.56;4995714;28;20026;-78
2023/11/03 00:05:00;;;;;;;17.23;2.33;;;;;;;6.75;100.00;97543.66;4995286;28;20030;-82
2023/11/03 00:07:26;;;;;;;11.52;2.42;;;;;;;6.73;100.00;97546.50;4996256;28;20458;-78
2023/11/03 00:09:51;;;;;;;14.32;2.92;;;;;;;6.71;100.00;97549.34;4995781;28;20032;-78
2023/11/03 00:12:17;;;;;;;8.27;2.08;;;;;;;6.71;100.00;97545.88;4995751;28;20030;-77
2023/11/03 00:14:43;;;;;;;9.75;2.22;;;;;;;6.69;100.00;97564.56;4995770;28;20026;-81
2023/11/03 00:17:09;;;;;;;9.10;2.40;;;;;;;6.68;100.00;97549.72;4995634;28;20061;-85
2023/11/03 00:19:35;;;;;;;7.70;2.30;;;;;;;6.66;100.00;97564.97;4994365;28;20113;-81
2023/11/03 00:22:00;;;;;;;9.13;2.55;;;;;;;6.68;100.00;97572.69;4995633;28;20473;-76
2023/11/03 00:24:26;;;;;;;8.98;1.95;;;;;;;6.68;100.00;97572.69;4995417;28;20089;-81
2023/11/03 00:26:54;;;;;;;8.63;1.85;;;;;;;6.68;100.00;97576.16;4995719;28;20089;-81
2023/11/03 00:29:23;;;;;;;10.02;2.30;;;;;;;6.70;100.00;97574.16;4994224;28;20562;-81
2023/11/03 00:31:49;;;;;;;6.60;2.40;;;;;;;6.71;100.00;97581.03;4995492;28;20407;-83
2023/11/03 00:34:15;;;;;;;9.88;2.00;;;;;;;6.74;100.00;97582.50;4995470;28;20061;-81
2023/11/03 00:36:42;;;;;;;13.82;2.20;;;;;;;6.76;100.00;97580.47;4995748;28;20062;-83
2023/11/03 00:39:12;;;;;;;9.25;1.95;;;;;;;6.79;100.00;97587.19;4995350;28;20042;-80
2023/11/03 00:41:43;;;;;;;15.85;2.45;;;;;;;6.85;100.00;97591.69;4995098;28;20046;-81
2023/11/03 00:44:11;;;;;;;7.63;2.60;;;;;;;6.88;100.00;97591.31;4995295;28;20105;-80
2023/11/03 00:46:38;;;;;;;10.00;2.20;;;;;;;6.91;100.00;97593.56;4995589;28;20038;-79
2023/11/03 00:49:04;;;;;;;13.32;2.42;;;;;;;6.95;100.00;97592.16;4994946;28;20096;-79
2023/11/03 00:51:29;;;;;;;12.43;2.38;;;;;;;7.00;100.00;97586.28;4995152;28;20459;-83
2023/11/03 00:53:56;;;;;;;12.35;2.55;;;;;;;7.03;100.00;97605.22;4994948;28;20030;-81
2023/11/03 00:56:21;;;;;;;11.10;2.70;;;;;;;7.06;100.00;97601.34;4995010;28;20169;-81
2023/11/03 00:58:47;;;;;;;15.07;2.40;;;;;;;7.10;100.00;97612.38;4995051;28;20121;-80
2023/11/03 01:01:13;;;;;;;13.25;2.38;;;;;;;7.13;100.00;97618.06;4994948;28;20022;-79
2023/11/03 01:03:39;;;;;;;13.95;2.85;;;;;;;7.16;100.00;97620.31;4994848;28;20030;-83
2023/11/03 01:06:07;;;;;;;13.98;2.85;;;;;;;7.18;100.00;97617.50;4995059;28;20402;-80
2023/11/03 01:08:33;;;;;;;15.88;2.47;;;;;;;7.21;100.00;97627.66;4994776;28;20502;-80
2023/11/03 01:10:59;;;;;;;13.30;2.40;;;;;;;7.21;100.00;97625.03;4994427;28;20129;-80
2023/11/03 01:13:24;;;;;;;21.70;3.47;;;;;;;7.22;100.00;97635.41;4994676;28;20049;-79
2023/11/03 01:15:51;;;;;;;19.23;3.15;;;;;;;7.25;100.00;97650.06;4994849;28;20116;-79
2023/11/03 01:18:17;;;;;;;15.35;2.67;;;;;;;7.26;100.00;97635.84;4994566;28;20023;-79
2023/11/03 01:20:42;;;;;;;20.33;3.30;;;;;;;7.27;100.00;97647.22;4993552;28;20041;-83
2023/11/03 01:23:08;;;;;;;9.05;2.42;;;;;;;7.24;100.00;97640.53;4994605;28;20450;-81
2023/11/03 01:25:33;;;;;;;12.77;2.35;;;;;;;7.24;100.00;97661.69;4994267;28;20467;-80
2023/11/03 01:27:59;;;;;;;9.05;2.08;;;;;;;7.22;100.00;97656.56;4994495;28;20469;-81
2023/11/03 01:30:26;;;;;;;10.52;2.42;;;;;;;7.25;100.00;97650.06;4994430;28;20121;-80
2023/11/03 01:32:52;;;;;;;8.38;2.08;;;;;;;7.25;100.00;97642.16;4995076;28;20089;-80
2023/11/03 01:35:24;;;;;;;20.20;3.25;;;;;;;7.28;100.00;97648.88;4994513;28;20037;-80
2023/11/03 01:37:50;;;;;;;9.90;2.65;;;;;;;7.28;100.00;97640.94;4994851;28;20089;-79
2023/11/03 01:40:16;;;;;;;13.48;2.95;;;;;;;7.27;100.00;97653.34;4994493;28;20121;-80
2023/11/03 01:42:44;;;;;;;19.65;3.20;;;;;;;7.30;100.00;97657.41;4993374;28;20113;-78
2023/11/03 01:45:10;;;;;;;13.18;2.65;;;;;;;7.31;100.00;97659.88;4994885;28;20469;-80
2023/11/03 01:47:36;;;;;;;18.17;2.35;;;;;;;7.34;100.00;97661.31;4995511;28;20125;-79
2023/11/03 01:50:01;;;;;;;21.92;3.10;;;;;;;7.34;100.00;97658.66;4994313;28;20073;-80
2023/11/03 01:52:29;;;;;;;22.83;2.97;;;;;;;7.35;100.00;97644.44;4994214;28;20468;-78
2023/11/03 01:54:55;;;;;;;21.27;2.63;;;;;;;7.40;100.00;97653.44;4994147;28;20463;-79
2023/11/03 01:57:21;;;;;;;15.20;2.45;;;;;;;7.45;100.00;97652.84;4993811;28;20097;-77
2023/11/03 01:59:50;;;;;;;25.30;2.85;;;;;;;7.51;100.00;97654.69;4998346;28;20053;-80
2023/11/03 02:02:16;;;;;;;22.70;2.50;;;;;;;7.54;100.00;97654.28;5000631;28;20057;-78
2023/11/03 02:04:41;;;;;;;18.38;2.42;;;;;;;7.62;100.00;97655.13;5000634;28;20038;-78
2023/11/03 02:07:07;;;;;;;20.73;3.03;;;;;;;7.70;100.00;97668.19;5000543;28;20380;-78
2023/11/03 02:09:33;;;;;;;17.35;2.30;;;;;;;7.74;100.00;97664.94;5000756;28;20091;-79
2023/11/03 02:11:58;;;;;;;32.35;2.80;;;;;;;7.77;100.00;97661.09;5000687;28;20041;-79
2023/11/03 02:14:23;;;;;;;25.10;2.72;;;;;;;7.86;100.00;97665.19;5000551;28;20030;-79
2023/11/03 02:16:49;;;;;;;21.08;2.22;;;;;;;7.90;100.00;97645.25;4999188;28;20037;-79
2023/11/03 02:19:15;;;;;;;20.02;3.15;;;;;;;7.94;100.00;97659.72;4983215;28;20022;-80
2023/11/03 02:21:42;;;;;;;14.73;2.10;;;;;;;7.99;100.00;97667.06;5000273;28;20034;-78
2023/11/03 02:24:08;;;;;;;19.52;2.70;;;;;;;8.01;100.00;97667.66;5000087;28;20030;-76
2023/11/03 02:26:36;;;;;;;27.83;3.53;;;;;;;8.06;100.00;97675.00;5000448;28;20022;-78
2023/11/03 02:29:03;;;;;;;33.97;3.33;;;;;;;8.08;100.00;97670.34;4999331;28;20089;-84
2023/11/03 02:31:30;;;;;;;30.10;3.90;;;;;;;8.07;100.00;97682.75;4999693;28;20347;-79
2023/11/03 02:33:55;;;;;;;32.17;3.65;;;;;;;8.09;100.00;97685.19;4999054;28;20034;-79
2023/11/03 02:36:22;;;;;;;29.55;3.22;;;;;;;8.12;100.00;97693.56;4999791;28;20092;-78
2023/11/03 02:38:48;;;;;;;27.80;4.07;;;;;;;8.15;100.00;97705.59;4999978;28;20339;-77
2023/11/03 02:41:14;;;;;;;21.85;2.88;;;;;;;8.18;100.00;97707.03;5000474;28;20033;-78
2023/11/03 02:43:39;;;;;;;30.00;3.40;;;;;;;8.19;100.00;97704.16;4999130;28;20033;-77
2023/11/03 02:46:05;;;;;;;25.75;3.13;;;;;;;8.22;100.00;97710.91;5000144;28;20022;-79
2023/11/03 02:48:31;;;;;;;19.58;3.05;;;;;;;8.22;100.00;97708.25;5000485;28;20050;-78
2023/11/03 02:50:59;;;;;;;21.05;3.08;;;;;;;8.22;100.00;97710.91;5000124;28;20110;-76
2023/11/03 02:53:24;;;;;;;18.15;2.63;;;;;;;8.21;100.00;97718.03;4999736;28;20347;-78
2023/11/03 02:55:49;;;;;;;19.77;2.53;;;;;;;8.22;100.00;97713.56;4999978;28;20033;-81
2023/11/03 02:58:15;;;;;;;27.00;3.70;;;;;;;8.20;100.00;97721.69;5000306;28;20026;-76
2023/11/03 03:00:41;;;;;;;25.23;3.53;;;;;;;8.20;100.00;97719.06;4999205;28;20034;-79
2023/11/03 03:03:07;;;;;;;30.15;3.28;;;;;;;8.22;100.00;97724.16;4999742;28;20039;-80
2023/11/03 03:05:33;;;;;;;20.48;3.80;;;;;;;8.22;100.00;97716.19;4998828;28;20113;-79
2023/11/03 03:07:59;;;;;;;26.17;3.28;;;;;;;8.22;100.00;97735.53;4999969;28;20033;-80
2023/11/03 03:10:24;;;;;;;19.27;2.90;;;;;;;8.21;100.00;97726.00;4997549;28;20038;-80
2023/11/03 03:12:49;;;;;;;24.75;3.53;;;;;;;8.20;100.00;97728.84;4995504;28;20485;-78
2023/11/03 03:15:15;;;;;;;24.27;2.67;;;;;;;8.20;100.00;97736.78;4997227;28;20092;-79
2023/11/03 03:17:41;;;;;;;24.83;3.20;;;;;;;8.20;100.00;97737.59;4996502;28;20038;-83
2023/11/03 03:20:07;;;;;;;21.05;2.80;;;;;;;8.20;100.00;97728.84;4996777;28;20173;-79
2023/11/03 03:22:32;;;;;;;15.60;3.20;;;;;;;8.22;100.00;97746.16;4996009;28;20026;-79
2023/11/03 03:24:57;;;;;;;21.90;3.13;;;;;;;8.22;100.00;97737.41;4996745;28;20374;-81
2023/11/03 03:27:23;;;;;;;22.42;3.28;;;;;;;8.20;100.00;97734.94;4995410;28;20058;-79
2023/11/03 03:29:48;;;;;;;21.45;3.03;;;;;;;8.19;100.00;97738.59;4996446;28;20041;-77
2023/11/03 03:32:14;;;;;;;17.20;2.58;;;;;;;8.21;100.00;97744.53;4996829;28;20027;-79
2023/11/03 03:34:39;;;;;;;19.98;2.72;;;;;;;8.21;100.00;97746.34;4996598;28;20488;-80
2023/11/03 03:37:05;;;;;;;17.48;2.55;;;;;;;8.22;100.00;97753.28;4996418;28;20034;-80
2023/11/03 03:39:30;;;;;;;22.63;3.08;;;;;;;8.23;100.00;97763.69;4996506;28;20553;-79
2023/11/03 03:41:56;;;;;;;21.70;3.25;;;;;;;8.25;100.00;97758.19;4996433;28;20041;-80
2023/11/03 03:44:21;;;;;;;22.52;2.85;;;;;;;8.27;100.00;97753.50;4996650;28;20063;-80
2023/11/03 03:46:47;;;;;;;24.95;4.60;;;;;;;8.28;100.00;97758.63;4996457;28;20369;-79
2023/11/03 03:49:12;;;;;;;13.18;2.78;;;;;;;8.28;100.00;97766.56;4996269;28;20057;-81
2023/11/03 03:51:37;;;;;;;32.10;3.65;;;;;;;8.27;100.00;97772.03;4996050;28;20492;-80
2023/11/03 03:54:03;;;;;;;27.55;2.92;;;;;;;8.27;100.00;97791.41;4994766;28;20019;-79
2023/11/03 03:56:28;;;;;;;20.35;2.75;;;;;;;8.29;100.00;97799.97;4996280;28;20078;-79
2023/11/03 03:58:54;;;;;;;19.20;3.00;;;;;;;8.28;100.00;97797.50;4996044;28;20370;-78
2023/11/03 04:01:21;;;;;;;22.00;3.53;;;;;;;8.26;100.00;97799.56;4996023;28;20362;-80
2023/11/03 04:03:47;;;;;;;17.27;2.85;;;;;;;8.25;100.00;97795.25;4996245;28;20026;-76
2023/11/03 04:06:13;;;;;;;20.00;2.70;;;;;;;8.22;100.00;97795.66;4996054;28;20030;-87
2023/11/03 04:08:38;;;;;;;25.40;3.20;;;;;;;8.23;100.00;97805.25;4978908;28;20069;-79
2023/11/03 04:11:04;;;;;;;24.95;3.78;;;;;;;8.25;100.00;97811.16;4996502;28;20101;-77
2023/11/03 04:13:29;;;;;;;25.73;3.17;;;;;;;8.28;100.00;97808.94;4995188;28;20042;-78
2023/11/03 04:15:55;;;;;;;24.20;3.58;;;;;;;8.29;100.00;97813.22;4995012;28;20516;-78
2023/11/03 04:18:21;;;;;;;21.52;3.03;;;;;;;8.34;100.00;97822.41;4978442;28;20117;-79
2023/11/03 04:20:47;;;;;;;27.23;3.05;;;;;;;8.36;100.00;97823.84;4995974;28;20335;-81
2023/11/03 04:23:13;;;;;;;28.23;4.10;;;;;;;8.37;100.00;97829.94;4995056;28;20030;-82
2023/11/03 04:25:39;;;;;;;35.97;3.80;;;;;;;8.36;100.00;97825.66;4994619;28;20192;-78
2023/11/03 04:28:08;;;;;;;30.70;3.83;;;;;;;8.39;100.00;97843.81;4995828;28;20026;-79
2023/11/03 04:30:35;;;;;;;31.60;4.68;;;;;;;8.39;100.00;97844.63;4995309;28;20031;-77
2023/11/03 04:33:03;;;;;;;35.45;4.30;;;;;;;8.41;100.00;97841.78;4995529;28;20109;-80
2023/11/03 04:35:29;;;;;;;30.83;3.95;;;;;;;8.40;100.00;97846.25;4994441;28;20026;-82
2023/11/03 04:37:54;;;;;;;22.20;3.47;;;;;;;8.41;100.00;97850.53;4995149;28;20053;-79
2023/11/03 04:40:21;;;;;;;33.03;5.38;;;;;;;8.43;100.00;97856.47;4995702;28;20478;-83
2023/11/03 04:42:47;;;;;;;26.65;3.22;;;;;;;8.43;100.00;97860.94;4995098;28;20092;-80
2023/11/03 04:45:13;;;;;;;36.15;3.55;;;;;;;8.39;100.00;97868.50;4995398;28;20030;-82
2023/11/03 04:47:38;;;;;;;37.17;4.82;;;;;;;8.37;100.00;97870.50;4994353;28;20030;-80
2023/11/03 04:50:06;;;;;;;29.52;4.25;;;;;;;8.35;100.00;97867.25;4995182;28;20026;-77
2023/11/03 04:52:31;;;;;;;36.10;3.80;;;;;;;8.34;100.00;97881.50;4994909;28;20077;-82
2023/11/03 04:54:57;;;;;;;26.63;3.53;;;;;;;8.34;100.00;97872.75;4994945;28;20065;-82
2023/11/03 04:57:22;;;;;;;27.45;3.92;;;;;;;8.32;100.00;97857.03;4993694;28;20486;-81
2023/11/03 04:59:49;;;;;;;25.73;3.83;;;;;;;8.28;100.00;97871.69;4994844;28;20077;-79
2023/11/03 05:02:17;;;;;;;28.42;4.18;;;;;;;8.28;100.00;97869.88;4994925;28;20471;-80
2023/11/03 05:04:42;;;;;;;25.88;3.65;;;;;;;8.26;100.00;97871.06;4995650;28;20458;-79
2023/11/03 05:07:08;;;;;;;33.03;4.80;;;;;;;8.27;100.00;97864.75;4994683;28;20080;-80
2023/11/03 05:09:36;;;;;;;25.98;3.80;;;;;;;8.27;100.00;97873.53;4995192;28;20026;-78
2023/11/03 05:12:03;;;;;;;23.40;3.05;;;;;;;8.28;100.00;97891.06;4994729;28;20042;-85
2023/11/03 05:14:29;;;;;;;26.48;3.78;;;;;;;8.23;100.00;97892.66;4994544;28;20026;-85
2023/11/03 05:16:54;;;;;;;23.85;3.60;;;;;;;8.19;100.00;97891.41;4994657;28;20034;-84
2023/11/03 05:19:20;;;;;;;28.58;3.88;;;;;;;8.18;100.00;97887.94;4994874;28;20425;-82
2023/11/03 05:21:45;;;;;;;22.02;3.17;;;;;;;8.17;100.00;97896.09;4994746;28;20062;-79
2023/11/03 05:24:11;;;;;;;31.10;4.40;;;;;;;8.18;100.00;97903.00;4994906;28;20433;-80
2023/11/03 05:26:36;;;;;;;26.52;4.07;;;;;;;8.18;100.00;97903.00;4995349;28;20023;-80
2023/11/03 05:29:03;;;;;;;28.85;4.05;;;;;;;8.20;100.00;97909.75;4994298;28;20026;-80
2023/11/03 05:31:29;;;;;;;23.67;3.35;;;;;;;8.20;100.00;97914.25;4994897;28;20367;-77
2023/11/03 05:33:54;;;;;;;31.02;4.53;;;;;;;8.22;100.00;97920.97;4977613;28;20034;-79
2023/11/03 05:36:20;;;;;;;39.60;3.85;;;;;;;8.21;100.00;97929.09;4994460;28;20516;-76
2023/11/03 05:38:45;;;;;;;33.08;4.05;;;;;;;8.22;100.00;97931.56;4995076;28;20469;-79
2023/11/03 05:41:13;;;;;;;21.83;3.13;;;;;;;8.22;100.00;97934.19;4994342;28;20347;-79
2023/11/03 05:43:38;;;;;;;30.17;3.38;;;;;;;8.24;100.00;97940.13;4994355;28;20165;-77
2023/11/03 05:46:04;;;;;;;32.72;4.35;;;;;;;8.24;100.00;97949.91;4993302;28;20433;-78
2023/11/03 05:48:29;;;;;;;29.60;3.83;;;;;;;8.20;100.00;97946.84;4994882;28;20039;-81
2023/11/03 05:50:56;;;;;;;27.80;3.85;;;;;;;8.18;100.00;97945.38;4994632;28;20030;-80
2023/11/03 05:53:21;;;;;;;32.33;3.20;;;;;;;8.16;100.00;97956.16;4994444;28;20038;-81
2023/11/03 05:55:47;;;;;;;17.27;3.10;;;;;;;8.15;100.00;97962.50;4992725;28;20463;-80
2023/11/03 05:58:12;;;;;;;40.20;4.15;;;;;;;8.15;100.00;97969.59;4994690;28;20034;-77
2023/11/03 06:00:38;;;;;;;29.88;4.05;;;;;;;8.14;100.00;97962.69;4994095;28;20085;-80
2023/11/03 06:03:03;;;;;;;34.50;4.00;;;;;;;8.15;100.00;97972.25;4994284;28;20058;-82
2023/11/03 06:05:29;;;;;;;26.67;3.70;;;;;;;8.12;100.00;97987.53;4994104;28;20026;-83
2023/11/03 06:07:54;;;;;;;27.92;3.42;;;;;;;8.14;100.00;97983.88;4994398;28;20045;-80
2023/11/03 06:10:20;;;;;;;21.58;3.10;;;;;;;8.12;100.00;97994.63;4994182;28;20029;-78
2023/11/03 06:12:46;;;;;;;28.08;4.20;;;;;;;8.10;100.00;97997.47;4993838;28;20031;-80
2023/11/03 06:15:13;;;;;;;31.50;4.18;;;;;;;8.09;100.00;98003.81;4993388;28;20038;-77
2023/11/03 06:17:39;;;;;;;30.38;4.25;;;;;;;8.10;100.00;98017.88;4994252;28;20062;-79
2023/11/03 06:20:05;;;;;;;31.42;3.47;;;;;;;8.09;100.00;98024.16;4994926;28;20069;-80
2023/11/03 06:22:31;;;;;;;26.45;3.10;;;;;;;8.07;100.00;98024.34;4995280;28;20039;-82
2023/11/03 06:24:57;;;;;;;16.08;3.28;;;;;;;8.06;100.00;98038.63;4996413;28;20437;-80
2023/11/03 06:27:22;;;;;;;38.70;4.03;;;;;;;8.04;100.00;98043.28;4977695;28;20026;-80
2023/11/03 06:29:47;;;;;;;19.67;2.83;;;;;;;8.04;100.00;98050.41;4994291;28;20459;-78
2023/11/03 06:32:13;;;;;;;27.10;3.33;;;;;;;8.03;100.00;98036.34;4977083;28;20025;-81
2023/11/03 06:34:39;;;;;;;27.55;3.92;;;;;;;8.00;100.00;98063.22;4994593;28;20517;-81
2023/11/03 06:37:05;;;;;;;30.90;3.35;;;;;;;7.97;100.00;98052.97;4994441;28;20037;-79
2023/11/03 06:39:30;;;;;;;21.15;3.20;;;;;;;7.97;100.00;98073.34;4994638;28;20026;-78
2023/11/03 06:41:56;;;;;;;23.30;3.05;;;;;;;7.94;100.00;98070.09;4993550;28;20459;-79
2023/11/03 06:44:21;;;;;;;29.80;3.50;;;;;;;7.93;100.00;98065.00;4996032;28;20026;-81
2023/11/03 06:46:46;;;;;;;22.63;3.15;;;;;;;7.93;100.00;98078.22;4995925;28;20034;-80
2023/11/03 06:49:12;;;;;;;26.58;3.78;;;;;;;7.90;100.00;98091.84;4980052;28;20117;-82
2023/11/03 06:51:37;;;;;;;18.83;3.03;;;;;;;7.90;100.00;98091.84;4997804;28;20031;-83
2023/11/03 06:54:04;;;;;;;17.90;3.10;;;;;;;7.86;100.00;98107.25;4996739;28;20431;-79
2023/11/03 06:56:30;;;;;;;24.70;3.42;;;;;;;7.84;100.00;98111.94;4997285;28;20085;-80
2023/11/03 06:58:55;;;;;;;18.42;3.50;;;;;;;7.79;100.00;98116.97;4996821;28;20026;-79
2023/11/03 07:01:20;;;;;;;19.00;4.00;;;;;;;7.75;100.00;98121.00;4997512;28;20030;-80
2023/11/03 07:03:46;;;;;;;28.48;3.97;;;;;;;7.68;100.00;98131.50;4979817;28;20065;-78
2023/11/03 07:06:13;;;;;;;15.75;3.25;;;;;;;7.65;100.00;98126.59;4996489;28;20106;-80
2023/11/03 07:08:38;;;;;;;28.25;4.10;;;;;;;7.65;100.00;98133.72;4979890;28;20065;-80
2023/11/03 07:11:04;;;;;;;22.65;3.42;;;;;;;7.65;100.00;98129.25;4995865;28;20026;-79
2023/11/03 07:13:29;;;;;;;18.92;2.88;;;;;;;7.68;100.00;98118.28;4997039;28;20375;-82
2023/11/03 07:15:55;;;;;;;22.40;3.17;;;;;;;7.68;100.00;98120.13;4995505;28;20030;-80
2023/11/03 07:18:21;;;;;;;25.08;3.80;;;;;;;7.68;100.00;98123.56;4997067;28;20042;-83
2023/11/03 07:20:47;;;;;;;21.63;3.10;;;;;;;7.71;100.00;98128.50;4996775;28;20335;-82
2023/11/03 07:23:13;;;;;;;25.85;4.07;;;;;;;7.67;100.00;98119.28;4996868;28;20057;-81
2023/11/03 07:25:39;;;;;;;22.15;2.95;;;;;;;7.65;100.00;98134.53;4995497;28;20034;-81
2023/11/03 07:28:05;;;;;;;16.10;2.50;;;;;;;7.66;100.00;98145.94;4996771;28;20030;-80
2023/11/03 07:30:30;;;;;;;23.20;3.38;;;;;;;7.66;100.00;98144.13;4995458;28;20030;-81
2023/11/03 07:32:55;;;;;;;17.00;3.28;;;;;;;7.67;100.00;98144.94;4996603;28;20435;-81
2023/11/03 07:35:21;;;;;;;21.48;3.78;;;;;;;7.68;100.00;98149.22;4996627;28;20470;-82
2023/11/03 07:37:46;;;;;;;22.67;3.08;;;;;;;7.69;100.00;98159.63;4995339;28;20040;-79
2023/11/03 07:40:14;;;;;;;26.25;4.10;;;;;;;7.75;100.00;98148.28;4996520;28;20038;-79
2023/11/03 07:42:40;;;;;;;15.20;2.97;;;;;;;7.76;100.00;98149.94;4996938;28;20026;-79
2023/11/03 07:45:07;;;;;;;28.98;3.85;;;;;;;7.83;100.00;98165.06;4995037;28;20049;-78
2023/11/03 07:47:33;;;;;;;20.75;2.67;;;;;;;7.89;100.00;98173.06;4996080;28;20019;-77
2023/11/03 07:49:58;;;;;;;18.70;3.28;;;;;;;7.91;100.00;98179.03;4994391;28;20030;-80
2023/11/03 07:52:24;;;;;;;20.70;2.53;;;;;;;7.89;100.00;98178.38;4994725;28;20034;-80
2023/11/03 07:54:49;;;;;;;22.33;3.40;;;;;;;7.87;100.00;98187.53;4995742;28;20058;-81
2023/11/03 07:57:14;;;;;;;31.80;3.97;;;;;;;7.90;100.00;98185.31;4995112;28;20046;-82
2023/11/03 07:59:42;;;;;;;17.92;2.85;;;;;;;7.89;100.00;98194.25;4994753;28;20473;-79
2023/11/03 08:02:09;;;;;;;21.92;3.47;;;;;;;7.94;100.00;98185.75;4995763;28;20443;-79
2023/11/03 08:04:35;;;;;;;33.65;3.45;;;;;;;7.98;100.00;98192.31;4994137;28;20473;-80
2023/11/03 08:07:00;;;;;;;40.80;4.72;;;;;;;8.02;100.00;98190.94;4995513;28;20033;-79
2023/11/03 08:09:28;;;;;;;22.88;3.50;;;;;;;8.08;100.00;98194.69;4995501;28;20097;-79
2023/11/03 08:11:54;;;;;;;21.95;2.92;;;;;;;8.18;100.00;98195.19;4995724;28;20034;-79
2023/11/03 08:14:20;;;;;;;24.20;3.10;;;;;;;8.23;100.00;98198.09;4995587;28;20118;-78
2023/11/03 08:16:46;;;;;;;26.48;3.00;;;;;;;8.29;100.00;98201.81;4995752;28;20030;-78
2023/11/03 08:19:12;;;;;;;22.92;3.47;;;;;;;8.34;100.00;98207.34;4995446;28;20037;-78
2023/11/03 08:21:41;;;;;;;18.98;3.17;;;;;;;8.42;100.00;98206.41;4994620;28;20034;-79
2023/11/03 08:24:17;;;;;;;28.42;3.30;;;;;;;8.46;100.00;98213.00;4978782;28;20030;-79
2023/11/03 08:26:43;;;;;;;19.83;2.88;;;;;;;8.42;100.00;98219.66;4995560;28;20089;-83
2023/11/03 08:29:08;;;;;;;25.20;3.13;;;;;;;8.45;100.00;98222.78;4994087;28;20116;-81
2023/11/03 08:31:34;;;;;;;16.95;3.50;;;;;;;8.47;100.00;98226.06;4993909;28;20034;-80
2023/11/03 08:34:03;;;;;;;25.85;3.38;;;;;;;8.46;100.00;98229.75;4995555;28;20057;-80
2023/11/03 08:36:28;;;;;;;22.33;2.50;;;;;;;8.44;100.00;98233.59;4995074;28;20034;-78
2023/11/03 08:38:54;;;;;;;19.30;3.25;;;;;;;8.42;100.00;98230.25;4995503;28;20435;-80
2023/11/03 08:41:20;;;;;;;27.48;2.50;;;;;;;8.40;100.00;98246.34;4996062;28;20030;-79
2023/11/03 08:43:46;;;;;;;17.10;2.15;;;;;;;8.40;100.00;98233.09;4994011;28;20358;-79
2023/11/03 08:46:12;;;;;;;27.02;2.67;;;;;;;8.39;100.00;98249.19;4995232;28;20026;-78
2023/11/03 08:48:39;;;;;;;20.60;2.80;;;;;;;8.39;100.00;98252.66;4995209;28;20034;-80
2023/11/03 08:51:04;;;;;;;23.27;2.60;;;;;;;8.44;100.00;98258.25;4996192;28;20054;-78
2023/11/03 08:53:30;;;;;;;24.08;3.25;;;;;;;8.45;100.00;98265.19;4993800;28;20384;-81
2023/11/03 08:55:55;;;;;;;34.25;4.28;;;;;;;8.48;100.00;98253.41;4994888;28;20046;-78
2023/11/03 08:58:20;;;;;;;17.13;2.50;;;;;;;8.46;100.00;98268.66;4995207;28;20052;-78
2023/11/03 09:00:48;;;;;;;29.13;3.92;;;;;;;8.40;100.00;98264.88;4994451;28;20030;-79
2023/11/03 09:03:13;;;;;;;22.05;2.85;;;;;;;8.35;100.00;98263.84;4994686;28;20031;-79
2023/11/03 09:05:39;;;;;;;22.42;3.10;;;;;;;8.30;100.00;98267.06;4994224;28;20050;-78
2023/11/03 09:08:05;;;;;;;19.38;3.05;;;;;;;8.29;100.00;98284.75;4993137;28;20121;-79
2023/11/03 09:10:31;;;;;;;23.30;3.53;;;;;;;8.36;100.00;98279.53;4994444;28;20034;-81
2023/11/03 09:12:57;;;;;;;32.90;3.17;;;;;;;8.53;100.00;98292.59;4994471;28;20053;-76
2023/11/03 09:15:23;;;;;;;28.33;3.50;;;;;;;8.60;100.00;98291.66;4994587;28;20466;-79
2023/11/03 09:17:49;;;;;;;22.42;3.88;;;;;;;8.54;100.00;98297.69;4994645;28;20030;-80
2023/11/03 09:20:17;;;;;;;18.45;3.38;;;;;;;8.47;100.00;98299.44;4993837;28;20030;-81
2023/11/03 09:22:43;;;;;;;28.15;3.58;;;;;;;8.45;100.00;98299.66;4994253;28;20030;-83
2023/11/03 09:25:09;;;;;;;18.85;2.92;;;;;;;8.43;100.00;98301.63;4993864;28;20562;-82
2023/11/03 09:27:34;;;;;;;23.10;3.58;;;;;;;8.42;100.00;98313.25;4993942;28;20026;-84
2023/11/03 09:30:00;;;;;;;24.95;3.08;;;;;;;8.43;100.00;98314.06;4994585;28;20053;-85
2023/11/03 09:32:27;;;;;;;23.85;2.85;;;;;;;8.41;100.00;98308.94;4994443;28;20125;-78
2023/11/03 09:34:53;;;;;;;27.73;4.07;;;;;;;8.46;100.00;98316.34;4993714;28;20026;-82
2023/11/03 09:37:19;;;;;;;28.08;3.30;;;;;;;8.39;100.00;98318.06;4994311;28;20033;-83
2023/11/03 09:39:45;;;;;;;19.55;3.03;;;;;;;8.27;100.00;98315.09;4992407;28;20026;-80
2023/11/03 09:42:12;;;;;;;24.63;2.88;;;;;;;8.19;100.00;98339.84;4994108;28;20081;-79
2023/11/03 09:44:38;;;;;;;21.98;3.45;;;;;;;8.12;100.00;98334.50;4992904;28;20030;-76
2023/11/03 09:47:05;;;;;;;18.95;2.85;;;;;;;8.08;100.00;98343.78;4992712;28;20034;-78
2023/11/03 09:49:31;;;;;;;17.25;3.15;;;;;;;8.03;100.00;98335.59;4994125;28;20462;-78
2023/11/03 09:52:05;;;;;;;15.05;2.67;;;;;;;8.04;100.00;98337.22;4992926;28;20034;-80
2023/11/03 09:54:32;;;;;;;20.60;2.70;;;;;;;8.00;100.00;98328.03;4992818;28;20044;-78
2023/11/03 09:57:08;;;;;;;17.60;2.53;;;;;;;8.00;100.00;98330.66;4994265;28;20074;-80
2023/11/03 09:59:34;;;;;;;27.00;2.90;;;;;;;8.02;100.00;98341.06;4994566;28;20023;-80
2023/11/03 10:02:05;;;;;;;28.10;3.55;;;;;;;8.01;100.00;98331.47;4993933;28;20033;-78
2023/11/03 10:04:30;;;;;;;20.97;2.97;;;;;;;8.00;100.00;98335.13;4993176;28;20091;-77
2023/11/03 10:06:58;;;;;;;31.73;4.18;;;;;;;8.04;100.00;98347.00;4993692;28;20022;-80
2023/11/03 10:09:24;;;;;;;21.33;3.53;;;;;;;8.05;100.00;98346.00;4993860;28;20026;-79
2023/11/03 10:11:49;;;;;;;19.33;3.30;;;;;;;8.05;100.00;98343.34;4993396;28;20517;-80
2023/11/03 10:14:14;;;;;;;20.48;2.92;;;;;;;8.08;100.00;98345.63;4992634;28;20031;-84
2023/11/03 10:16:41;;;;;;;22.23;3.22;;;;;;;8.07;100.00;98339.50;4992549;28;20076;-78
2023/11/03 10:19:07;;;;;;;25.95;3.50;;;;;;;8.09;100.00;98353.41;4993672;28;20030;-78
2023/11/03 10:21:32;;;;;;;29.23;3.70;;;;;;;8.12;100.00;98345.09;4996871;28;20026;-79
2023/11/03 10:23:59;;;;;;;27.48;2.92;;;;;;;8.22;100.00;98346.63;4997922;28;20034;-78
2023/11/03 10:26:26;;;;;;;24.95;3.35;;;;;;;8.39;100.00;98347.22;4998092;28;20113;-78
2023/11/03 10:28:51;;;;;;;22.33;3.10;;;;;;;8.52;100.00;98339.44;4997905;28;20107;-79
2023/11/03 10:31:20;;;;;;;22.33;3.17;;;;;;;8.72;100.00;98344.16;4996287;28;20471;-81
2023/11/03 10:33:46;;;;;;;24.48;3.65;;;;;;;8.83;100.00;98343.66;4997185;28;20022;-78
2023/11/03 10:36:12;;;;;;;26.13;2.65;;;;;;;8.95;100.00;98333.38;4997466;28;20458;-79
2023/11/03 10:38:37;;;;;;;23.70;3.00;;;;;;;9.05;100.00;98339.19;4998137;28;20057;-81
2023/11/03 10:41:09;;;;;;;24.77;3.38;;;;;;;9.20;100.00;98338.31;4997608;28;20370;-82
2023/11/03 10:43:45;;;;;;;16.25;3.17;;;;;;;9.30;100.00;98344.91;4997324;28;20026;-79
2023/11/03 10:46:30;;;;;;;20.48;3.05;;;;;;;9.40;100.00;98344.56;4998225;28;20038;-81
2023/11/03 10:49:07;;;;;;;15.02;2.70;;;;;;;9.40;100.00;98336.59;4997538;28;20121;-82
2023/11/03 10:51:38;;;;;;;21.40;3.40;;;;;;;9.39;100.00;98350.91;4998097;28;20022;-79
2023/11/03 10:54:25;;;;;;;13.00;2.75;;;;;;;9.42;100.00;98339.91;4998052;28;20036;-80
2023/11/03 10:56:51;;;;;;;17.73;3.20;;;;;;;9.47;100.00;98347.28;4997368;28;20054;-81
2023/11/03 10:59:17;;;;;;;14.88;3.13;;;;;;;9.53;100.00;98365.09;4997533;28;20023;-80
2023/11/03 11:01:53;;;;;;;25.75;2.67;;;;;;;9.55;100.00;98349.78;4999018;28;20033;-81
2023/11/03 11:04:25;;;;;;;14.35;2.75;;;;;;;9.59;100.00;98352.88;4998831;28;20060;-81
2023/11/03 11:07:02;;;;;;;19.67;2.75;;;;;;;9.63;100.00;98354.97;4998348;28;20029;-85
2023/11/03 11:09:40;;;;;;;12.63;2.60;;;;;;;9.65;100.00;98352.91;5013244;28;20092;-79
2023/11/03 11:12:07;;;;;;;12.82;2.30;;;;;;;9.66;100.00;98357.22;4998178;28;20033;-81
2023/11/03 11:14:37;;;;;;;14.27;2.88;;;;;;;9.60;100.00;98351.84;4997537;28;20035;-81
2023/11/03 11:17:07;;;;;;;18.13;2.90;;;;;;;9.56;100.00;98372.66;4997601;28;20407;-81
2023/11/03 11:19:42;;;;;;;12.63;2.38;;;;;;;9.53;100.00;98370.41;4997685;28;20026;-77
2023/11/03 11:22:11;;;;;;;17.15;2.55;;;;;;;9.49;100.00;98380.59;4997661;28;20109;-77